Etusivu
METAR-TAF:

METAR-TAF

Lentoasemat :

Luulaja, Ruotsi

Luulajan lentoasema

Leveyspiiri: 65-33N, Pituuspiiri: 022-08E, korkeus merenpinnasta: 17 m

Tämänhetkinen sää

Tämä raportti tehtiin 18 minuuttia sitten, kello 01.50 UTC
Tuuli 4 kn etelästä
Lämpötila 1°C
Kosteus 93%
Ilmanpaine 998 hPa
Näkyvyys 10 km tai enemmän

METAR: ESPA 250150Z AUTO 18004KT 9999 BKN021/// 01/00 Q0998

Aika: 03:08 (02:08 UTC)

Sääennuste

Tämä raportti tehtiin 5 tuntia ja 38 minuuttia sitten, kello 20.30 UTC
Ennuste voimassa 24. päivästä klo 21 UTC - 24. päivään klo 24 UTC
Tuuli 8 kn etelästä
Näkyvyys 10 km tai enemmän
Pilvistä 2500 ft:n korkeudessa
Todennäköisyys 40%
24. päivästä klo 21 UTC - 24. päivään klo 24 UTC
Hajonneita pilviä 700 ft:n korkeudessa

TAF: ESPA 242030Z 2421/2424 18008KT 9999 OVC025 PROB40 2421/2424 BKN007

Säähavainnot ja -ennusteet yli 4000 lentoasemalta (METAR- ja TAF-raportit).

Käytössä olevat sääasemat on merkitty karttaan keltaisilla ja punaisilla pisteillä.

Aseta hiiri pisteen päälle nähdäksesi sääaseman nimen.

Klikkaa sitten nähdäksesi säähavainnot ja -ennusteet.

Kartan vaihtaminen: klikkaa mustalla rastilla varustettuja vihreitä pisteitä, niin voit zoomata sisään; viivalla varustettua vihreää pistettä, niin voit zoomata ulos tai vihreitä nuolia, niin pääset viereisille kartoille.


METAR-TAF: